EPLL/LCJ METAR and TAF weather

Enter ICAO airport designator
Station Type Date Time Source
EPLL METAR 2018/04/21 21:00 UTC NOAA

EPLL 212100Z 30003KT 260V330 CAVOK 13/02 Q1017


Station Type Date Time Source
EPLL Decoded METAR 2018/04/21 21:00 UTC NOAA

Station name not available
Apr 21, 2018 - 05:00 PM EDT / 2018.04.21 2100 UTC
Wind: from the WNW (300 degrees) at 3 MPH (3 KT) (direction variable):0
Visibility: greater than 7 mile(s):0
Temperature: 55 F (13 C)
Dew Point: 35 F (2 C)
Relative Humidity: 47%
Pressure (altimeter): 30.03 in. Hg (1017 hPa)
ob: EPLL 212100Z 30003KT 260V330 CAVOK 13/02 Q1017
cycle: 21

Station Type Date Time Source
EPLL TAF 2018/04/21 18:00 UTC NOAA

TAF EPLL 211730Z 2118/2218 32008KT CAVOK


Example: see airport list